sensor_id;sensor_type;location;lat;lon;timestamp;temperature;humidity
63013;DHT22;62113;45.624;11.700;2023-02-23T00:01:56;12.70;68.20
63013;DHT22;62113;45.624;11.700;2023-02-23T00:04:23;12.70;68.20
63013;DHT22;62113;45.624;11.700;2023-02-23T00:06:49;12.70;68.40
63013;DHT22;62113;45.624;11.700;2023-02-23T00:09:18;12.70;68.50
63013;DHT22;62113;45.624;11.700;2023-02-23T00:12:00;12.70;68.40
63013;DHT22;62113;45.624;11.700;2023-02-23T00:14:32;12.70;68.30
63013;DHT22;62113;45.624;11.700;2023-02-23T00:16:58;12.70;68.20
63013;DHT22;62113;45.624;11.700;2023-02-23T00:19:24;12.70;68.20
63013;DHT22;62113;45.624;11.700;2023-02-23T00:21:50;12.60;68.30
63013;DHT22;62113;45.624;11.700;2023-02-23T00:24:16;12.60;68.20
63013;DHT22;62113;45.624;11.700;2023-02-23T00:26:46;12.60;68.10
63013;DHT22;62113;45.624;11.700;2023-02-23T00:29:16;12.60;68.10
63013;DHT22;62113;45.624;11.700;2023-02-23T00:31:43;12.60;68.20
63013;DHT22;62113;45.624;11.700;2023-02-23T00:34:11;12.60;68.10
63013;DHT22;62113;45.624;11.700;2023-02-23T00:36:37;12.60;68.10
63013;DHT22;62113;45.624;11.700;2023-02-23T00:39:09;12.60;68.10
63013;DHT22;62113;45.624;11.700;2023-02-23T00:41:50;12.60;68.10
63013;DHT22;62113;45.624;11.700;2023-02-23T00:44:17;12.60;68.40
63013;DHT22;62113;45.624;11.700;2023-02-23T00:46:44;12.50;68.20
63013;DHT22;62113;45.624;11.700;2023-02-23T00:49:11;12.60;68.10
63013;DHT22;62113;45.624;11.700;2023-02-23T00:51:37;12.50;68.10
63013;DHT22;62113;45.624;11.700;2023-02-23T00:54:03;12.50;68.30
63013;DHT22;62113;45.624;11.700;2023-02-23T00:56:29;12.50;68.50
63013;DHT22;62113;45.624;11.700;2023-02-23T00:58:55;12.40;68.40
63013;DHT22;62113;45.624;11.700;2023-02-23T01:01:21;12.50;68.50
63013;DHT22;62113;45.624;11.700;2023-02-23T01:03:47;12.50;68.50
63013;DHT22;62113;45.624;11.700;2023-02-23T01:06:15;12.40;68.30
63013;DHT22;62113;45.624;11.700;2023-02-23T01:08:46;12.40;68.30
63013;DHT22;62113;45.624;11.700;2023-02-23T01:11:20;12.40;68.60
63013;DHT22;62113;45.624;11.700;2023-02-23T01:13:47;12.40;68.50
63013;DHT22;62113;45.624;11.700;2023-02-23T01:16:16;12.30;68.40
63013;DHT22;62113;45.624;11.700;2023-02-23T01:18:43;12.30;68.50
63013;DHT22;62113;45.624;11.700;2023-02-23T01:21:18;12.30;68.60
63013;DHT22;62113;45.624;11.700;2023-02-23T01:23:44;12.30;68.60
63013;DHT22;62113;45.624;11.700;2023-02-23T01:26:18;12.30;68.60
63013;DHT22;62113;45.624;11.700;2023-02-23T01:28:51;12.40;68.70
63013;DHT22;62113;45.624;11.700;2023-02-23T01:31:18;12.40;68.50
63013;DHT22;62113;45.624;11.700;2023-02-23T01:33:43;12.40;68.80
63013;DHT22;62113;45.624;11.700;2023-02-23T01:36:11;12.40;68.80
63013;DHT22;62113;45.624;11.700;2023-02-23T01:38:37;12.40;68.60
63013;DHT22;62113;45.624;11.700;2023-02-23T01:41:03;12.30;68.40
63013;DHT22;62113;45.624;11.700;2023-02-23T01:43:29;12.30;68.60
63013;DHT22;62113;45.624;11.700;2023-02-23T01:45:55;12.30;68.70
63013;DHT22;62113;45.624;11.700;2023-02-23T01:48:37;12.30;68.50
63013;DHT22;62113;45.624;11.700;2023-02-23T01:51:10;12.20;68.60
63013;DHT22;62113;45.624;11.700;2023-02-23T01:53:41;12.20;68.80
63013;DHT22;62113;45.624;11.700;2023-02-23T01:56:13;12.20;69.00
63013;DHT22;62113;45.624;11.700;2023-02-23T01:58:46;12.20;68.80
63013;DHT22;62113;45.624;11.700;2023-02-23T02:01:16;12.20;68.90
63013;DHT22;62113;45.624;11.700;2023-02-23T02:03:45;12.20;68.90
63013;DHT22;62113;45.624;11.700;2023-02-23T02:06:14;12.10;68.80
63013;DHT22;62113;45.624;11.700;2023-02-23T02:08:45;12.10;68.70
63013;DHT22;62113;45.624;11.700;2023-02-23T02:11:12;12.00;68.70
63013;DHT22;62113;45.624;11.700;2023-02-23T02:14:28;12.00;68.70
63013;DHT22;62113;45.624;11.700;2023-02-23T02:25:46;11.80;68.70
63013;DHT22;62113;45.624;11.700;2023-02-23T02:36:45;11.60;69.10
63013;DHT22;62113;45.624;11.700;2023-02-23T02:47:39;11.30;69.70
63013;DHT22;62113;45.624;11.700;2023-02-23T02:50:26;11.30;69.70
63013;DHT22;62113;45.624;11.700;2023-02-23T02:53:17;11.30;69.70
63013;DHT22;62113;45.624;11.700;2023-02-23T02:55:47;11.30;69.60
63013;DHT22;62113;45.624;11.700;2023-02-23T02:58:14;11.30;69.70
63013;DHT22;62113;45.624;11.700;2023-02-23T03:00:46;11.30;69.70
63013;DHT22;62113;45.624;11.700;2023-02-23T03:03:38;11.30;69.70
63013;DHT22;62113;45.624;11.700;2023-02-23T03:06:36;11.30;69.90
63013;DHT22;62113;45.624;11.700;2023-02-23T03:19:20;11.30;69.70
63013;DHT22;62113;45.624;11.700;2023-02-23T03:22:31;11.30;69.60
63013;DHT22;62113;45.624;11.700;2023-02-23T03:25:28;11.30;69.70
63013;DHT22;62113;45.624;11.700;2023-02-23T03:28:21;11.20;69.90
63013;DHT22;62113;45.624;11.700;2023-02-23T03:31:48;11.30;70.10
63013;DHT22;62113;45.624;11.700;2023-02-23T03:34:41;11.30;70.20
63013;DHT22;62113;45.624;11.700;2023-02-23T03:40:25;11.30;70.10
63013;DHT22;62113;45.624;11.700;2023-02-23T03:43:16;11.40;69.90
63013;DHT22;62113;45.624;11.700;2023-02-23T03:46:03;11.30;69.80
63013;DHT22;62113;45.624;11.700;2023-02-23T03:48:52;11.40;69.90
63013;DHT22;62113;45.624;11.700;2023-02-23T03:51:41;11.40;69.90
63013;DHT22;62113;45.624;11.700;2023-02-23T03:54:40;11.40;69.80
63013;DHT22;62113;45.624;11.700;2023-02-23T03:57:27;11.40;69.80
63013;DHT22;62113;45.624;11.700;2023-02-23T04:00:18;11.40;69.70
63013;DHT22;62113;45.624;11.700;2023-02-23T04:03:05;11.40;69.70
63013;DHT22;62113;45.624;11.700;2023-02-23T04:05:52;11.40;69.80
63013;DHT22;62113;45.624;11.700;2023-02-23T04:08:37;11.40;69.60
63013;DHT22;62113;45.624;11.700;2023-02-23T04:14:32;11.40;69.70
63013;DHT22;62113;45.624;11.700;2023-02-23T04:17:01;11.40;69.50
63013;DHT22;62113;45.624;11.700;2023-02-23T04:19:27;11.40;69.40
63013;DHT22;62113;45.624;11.700;2023-02-23T04:21:53;11.40;69.50
63013;DHT22;62113;45.624;11.700;2023-02-23T04:24:19;11.30;69.70
63013;DHT22;62113;45.624;11.700;2023-02-23T04:26:44;11.30;70.00
63013;DHT22;62113;45.624;11.700;2023-02-23T04:29:13;11.30;69.90
63013;DHT22;62113;45.624;11.700;2023-02-23T04:31:38;11.40;69.90
63013;DHT22;62113;45.624;11.700;2023-02-23T04:34:06;11.40;69.80
63013;DHT22;62113;45.624;11.700;2023-02-23T04:36:32;11.40;69.60
63013;DHT22;62113;45.624;11.700;2023-02-23T04:38:57;11.30;69.70
63013;DHT22;62113;45.624;11.700;2023-02-23T04:41:23;11.30;69.90
63013;DHT22;62113;45.624;11.700;2023-02-23T04:43:48;11.30;70.00
63013;DHT22;62113;45.624;11.700;2023-02-23T04:46:14;11.30;69.90
63013;DHT22;62113;45.624;11.700;2023-02-23T04:48:40;11.20;70.00
63013;DHT22;62113;45.624;11.700;2023-02-23T04:51:05;11.20;70.10
63013;DHT22;62113;45.624;11.700;2023-02-23T04:53:31;11.20;70.20
63013;DHT22;62113;45.624;11.700;2023-02-23T04:55:57;11.20;70.60
63013;DHT22;62113;45.624;11.700;2023-02-23T04:58:22;11.20;70.70
63013;DHT22;62113;45.624;11.700;2023-02-23T05:00:48;11.20;70.60
63013;DHT22;62113;45.624;11.700;2023-02-23T05:03:14;11.30;70.70
63013;DHT22;62113;45.624;11.700;2023-02-23T05:05:42;11.30;70.60
63013;DHT22;62113;45.624;11.700;2023-02-23T05:08:08;11.30;70.50
63013;DHT22;62113;45.624;11.700;2023-02-23T05:10:33;11.30;70.60
63013;DHT22;62113;45.624;11.700;2023-02-23T05:12:59;11.30;70.60
63013;DHT22;62113;45.624;11.700;2023-02-23T05:15:26;11.30;70.70
63013;DHT22;62113;45.624;11.700;2023-02-23T05:17:53;11.40;70.60
63013;DHT22;62113;45.624;11.700;2023-02-23T05:20:19;11.40;70.40
63013;DHT22;62113;45.624;11.700;2023-02-23T05:22:45;11.40;70.50
63013;DHT22;62113;45.624;11.700;2023-02-23T05:25:10;11.40;70.50
63013;DHT22;62113;45.624;11.700;2023-02-23T05:27:37;11.40;70.60
63013;DHT22;62113;45.624;11.700;2023-02-23T05:30:04;11.40;70.50
63013;DHT22;62113;45.624;11.700;2023-02-23T05:32:29;11.40;70.40
63013;DHT22;62113;45.624;11.700;2023-02-23T05:34:55;11.40;70.20
63013;DHT22;62113;45.624;11.700;2023-02-23T05:37:20;11.40;70.20
63013;DHT22;62113;45.624;11.700;2023-02-23T05:39:46;11.40;70.20
63013;DHT22;62113;45.624;11.700;2023-02-23T05:42:12;11.40;70.40
63013;DHT22;62113;45.624;11.700;2023-02-23T05:44:37;11.40;70.50
63013;DHT22;62113;45.624;11.700;2023-02-23T05:47:03;11.40;70.40
63013;DHT22;62113;45.624;11.700;2023-02-23T05:49:29;11.40;70.30
63013;DHT22;62113;45.624;11.700;2023-02-23T05:51:54;11.40;70.30
63013;DHT22;62113;45.624;11.700;2023-02-23T05:54:20;11.40;70.30
63013;DHT22;62113;45.624;11.700;2023-02-23T05:56:46;11.40;70.40
63013;DHT22;62113;45.624;11.700;2023-02-23T05:59:11;11.40;70.40
63013;DHT22;62113;45.624;11.700;2023-02-23T06:01:37;11.40;70.20
63013;DHT22;62113;45.624;11.700;2023-02-23T06:04:03;11.40;70.20
63013;DHT22;62113;45.624;11.700;2023-02-23T06:06:29;11.40;70.30
63013;DHT22;62113;45.624;11.700;2023-02-23T06:08:55;11.40;70.40
63013;DHT22;62113;45.624;11.700;2023-02-23T06:11:21;11.40;70.40
63013;DHT22;62113;45.624;11.700;2023-02-23T06:13:47;11.40;70.30
63013;DHT22;62113;45.624;11.700;2023-02-23T06:16:13;11.40;70.30
63013;DHT22;62113;45.624;11.700;2023-02-23T06:18:38;11.40;70.40
63013;DHT22;62113;45.624;11.700;2023-02-23T06:21:04;11.40;70.40
63013;DHT22;62113;45.624;11.700;2023-02-23T06:23:31;11.40;70.30
63013;DHT22;62113;45.624;11.700;2023-02-23T06:25:57;11.40;70.20
63013;DHT22;62113;45.624;11.700;2023-02-23T06:28:24;11.40;70.10
63013;DHT22;62113;45.624;11.700;2023-02-23T06:30:53;11.40;70.10
63013;DHT22;62113;45.624;11.700;2023-02-23T06:33:19;11.30;70.20
63013;DHT22;62113;45.624;11.700;2023-02-23T06:35:45;11.30;70.80
63013;DHT22;62113;45.624;11.700;2023-02-23T06:38:11;11.30;70.90
63013;DHT22;62113;45.624;11.700;2023-02-23T06:40:37;11.30;70.50
63013;DHT22;62113;45.624;11.700;2023-02-23T06:43:03;11.30;70.50
63013;DHT22;62113;45.624;11.700;2023-02-23T06:45:29;11.40;70.80
63013;DHT22;62113;45.624;11.700;2023-02-23T06:47:59;11.40;70.80
63013;DHT22;62113;45.624;11.700;2023-02-23T06:50:27;11.40;71.00
63013;DHT22;62113;45.624;11.700;2023-02-23T06:52:53;11.50;70.70
63013;DHT22;62113;45.624;11.700;2023-02-23T06:55:18;11.50;70.70
63013;DHT22;62113;45.624;11.700;2023-02-23T06:57:44;11.60;70.70
63013;DHT22;62113;45.624;11.700;2023-02-23T07:00:13;11.60;70.50
63013;DHT22;62113;45.624;11.700;2023-02-23T07:02:40;11.70;70.50
63013;DHT22;62113;45.624;11.700;2023-02-23T07:05:06;11.70;70.50
63013;DHT22;62113;45.624;11.700;2023-02-23T07:07:32;11.70;70.30
63013;DHT22;62113;45.624;11.700;2023-02-23T07:09:57;11.70;70.50
63013;DHT22;62113;45.624;11.700;2023-02-23T07:12:23;11.80;70.20
63013;DHT22;62113;45.624;11.700;2023-02-23T07:14:49;11.80;70.20
63013;DHT22;62113;45.624;11.700;2023-02-23T07:17:14;11.90;70.20
63013;DHT22;62113;45.624;11.700;2023-02-23T07:19:42;12.00;70.20
63013;DHT22;62113;45.624;11.700;2023-02-23T07:22:08;12.10;70.00
63013;DHT22;62113;45.624;11.700;2023-02-23T07:24:34;12.10;70.00
63013;DHT22;62113;45.624;11.700;2023-02-23T07:27:00;12.20;69.80
63013;DHT22;62113;45.624;11.700;2023-02-23T07:29:25;12.20;69.70
63013;DHT22;62113;45.624;11.700;2023-02-23T07:31:52;12.20;69.60
63013;DHT22;62113;45.624;11.700;2023-02-23T07:34:18;12.20;69.70
63013;DHT22;62113;45.624;11.700;2023-02-23T07:36:43;12.30;69.70
63013;DHT22;62113;45.624;11.700;2023-02-23T07:39:09;12.30;69.90
63013;DHT22;62113;45.624;11.700;2023-02-23T07:41:35;12.30;69.70
63013;DHT22;62113;45.624;11.700;2023-02-23T07:44:00;12.40;69.50
63013;DHT22;62113;45.624;11.700;2023-02-23T07:46:26;12.40;69.50
63013;DHT22;62113;45.624;11.700;2023-02-23T07:48:52;12.40;69.50
63013;DHT22;62113;45.624;11.700;2023-02-23T07:51:18;12.40;69.40
63013;DHT22;62113;45.624;11.700;2023-02-23T07:53:44;12.40;69.40
63013;DHT22;62113;45.624;11.700;2023-02-23T07:56:11;12.40;69.60
63013;DHT22;62113;45.624;11.700;2023-02-23T07:58:41;12.40;69.60
63013;DHT22;62113;45.624;11.700;2023-02-23T08:01:08;12.40;69.90
63013;DHT22;62113;45.624;11.700;2023-02-23T08:03:33;12.40;70.30
63013;DHT22;62113;45.624;11.700;2023-02-23T08:05:59;12.50;70.00
63013;DHT22;62113;45.624;11.700;2023-02-23T08:08:26;12.50;69.70
63013;DHT22;62113;45.624;11.700;2023-02-23T08:10:59;12.50;69.60
63013;DHT22;62113;45.624;11.700;2023-02-23T08:13:24;12.60;69.50
63013;DHT22;62113;45.624;11.700;2023-02-23T08:15:50;12.60;69.60
63013;DHT22;62113;45.624;11.700;2023-02-23T08:18:16;12.70;69.40
63013;DHT22;62113;45.624;11.700;2023-02-23T08:20:42;12.70;69.60
63013;DHT22;62113;45.624;11.700;2023-02-23T08:23:07;12.70;69.60
63013;DHT22;62113;45.624;11.700;2023-02-23T08:25:34;12.80;69.40
63013;DHT22;62113;45.624;11.700;2023-02-23T08:28:00;12.80;69.50
63013;DHT22;62113;45.624;11.700;2023-02-23T08:30:29;12.80;69.40
63013;DHT22;62113;45.624;11.700;2023-02-23T08:32:55;12.80;69.40
63013;DHT22;62113;45.624;11.700;2023-02-23T08:35:21;12.90;69.60
63013;DHT22;62113;45.624;11.700;2023-02-23T08:37:47;12.90;69.60
63013;DHT22;62113;45.624;11.700;2023-02-23T08:40:13;13.00;69.70
63013;DHT22;62113;45.624;11.700;2023-02-23T08:42:43;13.10;69.90
63013;DHT22;62113;45.624;11.700;2023-02-23T08:45:09;13.20;69.80
63013;DHT22;62113;45.624;11.700;2023-02-23T08:47:35;13.30;69.30
63013;DHT22;62113;45.624;11.700;2023-02-23T08:50:01;13.30;69.40
63013;DHT22;62113;45.624;11.700;2023-02-23T08:52:27;13.40;69.30
63013;DHT22;62113;45.624;11.700;2023-02-23T08:54:54;13.50;69.10
63013;DHT22;62113;45.624;11.700;2023-02-23T08:57:20;13.60;68.90
63013;DHT22;62113;45.624;11.700;2023-02-23T08:59:46;13.70;68.70
63013;DHT22;62113;45.624;11.700;2023-02-23T09:02:12;13.70;68.20
63013;DHT22;62113;45.624;11.700;2023-02-23T09:04:39;13.80;67.70
63013;DHT22;62113;45.624;11.700;2023-02-23T09:07:08;13.90;67.60
63013;DHT22;62113;45.624;11.700;2023-02-23T09:09:34;13.90;67.10
63013;DHT22;62113;45.624;11.700;2023-02-23T09:11:59;14.00;66.80
63013;DHT22;62113;45.624;11.700;2023-02-23T09:14:26;14.10;66.70
63013;DHT22;62113;45.624;11.700;2023-02-23T09:16:52;14.20;66.70
63013;DHT22;62113;45.624;11.700;2023-02-23T09:19:18;14.20;66.60
63013;DHT22;62113;45.624;11.700;2023-02-23T09:21:44;14.30;65.90
63013;DHT22;62113;45.624;11.700;2023-02-23T09:24:10;14.30;65.80
63013;DHT22;62113;45.624;11.700;2023-02-23T09:26:35;14.30;65.40
63013;DHT22;62113;45.624;11.700;2023-02-23T09:29:05;14.30;65.40
63013;DHT22;62113;45.624;11.700;2023-02-23T09:31:31;14.40;65.10
63013;DHT22;62113;45.624;11.700;2023-02-23T09:33:57;14.40;64.80
63013;DHT22;62113;45.624;11.700;2023-02-23T09:36:25;14.40;64.50
63013;DHT22;62113;45.624;11.700;2023-02-23T09:38:53;14.50;64.40
63013;DHT22;62113;45.624;11.700;2023-02-23T09:49:44;14.50;64.10
63013;DHT22;62113;45.624;11.700;2023-02-23T09:52:16;14.60;64.10
63013;DHT22;62113;45.624;11.700;2023-02-23T09:54:42;14.70;64.00
63013;DHT22;62113;45.624;11.700;2023-02-23T09:57:15;14.70;64.00
63013;DHT22;62113;45.624;11.700;2023-02-23T09:59:42;14.70;63.50
63013;DHT22;62113;45.624;11.700;2023-02-23T10:04:49;14.70;62.40
63013;DHT22;62113;45.624;11.700;2023-02-23T10:11:03;14.60;62.70
63013;DHT22;62113;45.624;11.700;2023-02-23T10:13:51;14.70;63.10
63013;DHT22;62113;45.624;11.700;2023-02-23T10:19:06;14.80;63.00
63013;DHT22;62113;45.624;11.700;2023-02-23T10:21:43;14.80;63.10
63013;DHT22;62113;45.624;11.700;2023-02-23T10:24:19;14.90;63.10
63013;DHT22;62113;45.624;11.700;2023-02-23T10:26:58;14.90;63.30
63013;DHT22;62113;45.624;11.700;2023-02-23T10:29:29;14.90;63.50
63013;DHT22;62113;45.624;11.700;2023-02-23T10:32:04;14.90;63.80
63013;DHT22;62113;45.624;11.700;2023-02-23T10:34:30;14.90;64.00
63013;DHT22;62113;45.624;11.700;2023-02-23T10:37:01;14.90;64.10
63013;DHT22;62113;45.624;11.700;2023-02-23T10:39:30;14.80;64.00
63013;DHT22;62113;45.624;11.700;2023-02-23T10:41:59;14.80;64.20
63013;DHT22;62113;45.624;11.700;2023-02-23T10:44:27;14.80;64.40
63013;DHT22;62113;45.624;11.700;2023-02-23T10:47:21;14.80;64.50
63013;DHT22;62113;45.624;11.700;2023-02-23T10:49:50;15.00;64.40
63013;DHT22;62113;45.624;11.700;2023-02-23T10:54:51;15.20;64.10
63013;DHT22;62113;45.624;11.700;2023-02-23T11:02:29;15.30;64.00
63013;DHT22;62113;45.624;11.700;2023-02-23T11:04:59;15.40;63.90
63013;DHT22;62113;45.624;11.700;2023-02-23T11:07:30;15.60;63.80
63013;DHT22;62113;45.624;11.700;2023-02-23T11:09:57;15.70;63.40
63013;DHT22;62113;45.624;11.700;2023-02-23T11:12:35;15.70;63.20
63013;DHT22;62113;45.624;11.700;2023-02-23T11:17:59;16.00;62.80
63013;DHT22;62113;45.624;11.700;2023-02-23T11:20:41;16.20;62.40
63013;DHT22;62113;45.624;11.700;2023-02-23T11:23:25;16.30;62.10
63013;DHT22;62113;45.624;11.700;2023-02-23T11:25:58;16.40;61.60
63013;DHT22;62113;45.624;11.700;2023-02-23T11:28:31;16.50;61.20
63013;DHT22;62113;45.624;11.700;2023-02-23T11:31:08;16.40;61.30
63013;DHT22;62113;45.624;11.700;2023-02-23T11:33:38;16.40;61.20
63013;DHT22;62113;45.624;11.700;2023-02-23T11:36:26;16.50;61.10
63013;DHT22;62113;45.624;11.700;2023-02-23T11:41:26;16.70;60.70
63013;DHT22;62113;45.624;11.700;2023-02-23T11:43:56;16.70;60.60
63013;DHT22;62113;45.624;11.700;2023-02-23T11:46:23;16.70;60.40
63013;DHT22;62113;45.624;11.700;2023-02-23T11:48:53;16.80;60.40
63013;DHT22;62113;45.624;11.700;2023-02-23T11:51:24;16.90;60.00
63013;DHT22;62113;45.624;11.700;2023-02-23T11:53:50;17.00;59.20
63013;DHT22;62113;45.624;11.700;2023-02-23T11:56:20;16.90;58.70
63013;DHT22;62113;45.624;11.700;2023-02-23T11:58:50;16.80;58.80
63013;DHT22;62113;45.624;11.700;2023-02-23T12:01:22;16.80;59.40
63013;DHT22;62113;45.624;11.700;2023-02-23T12:03:53;17.00;59.20
63013;DHT22;62113;45.624;11.700;2023-02-23T12:06:39;17.00;58.70
63013;DHT22;62113;45.624;11.700;2023-02-23T12:11:46;16.80;58.80
63013;DHT22;62113;45.624;11.700;2023-02-23T12:14:36;16.70;59.40
63013;DHT22;62113;45.624;11.700;2023-02-23T12:17:17;16.70;59.40
63013;DHT22;62113;45.624;11.700;2023-02-23T12:19:50;16.70;59.30
63013;DHT22;62113;45.624;11.700;2023-02-23T12:22:26;16.70;59.50
63013;DHT22;62113;45.624;11.700;2023-02-23T12:27:43;16.80;59.40
63013;DHT22;62113;45.624;11.700;2023-02-23T12:30:26;16.80;59.50
63013;DHT22;62113;45.624;11.700;2023-02-23T12:33:01;16.80;59.50
63013;DHT22;62113;45.624;11.700;2023-02-23T12:35:38;16.90;59.30
63013;DHT22;62113;45.624;11.700;2023-02-23T12:41:05;16.90;59.50
63013;DHT22;62113;45.624;11.700;2023-02-23T12:46:42;17.00;59.60
63013;DHT22;62113;45.624;11.700;2023-02-23T12:52:01;17.00;58.90
63013;DHT22;62113;45.624;11.700;2023-02-23T12:54:33;17.00;58.90
63013;DHT22;62113;45.624;11.700;2023-02-23T13:02:32;16.70;60.00
63013;DHT22;62113;45.624;11.700;2023-02-23T13:05:22;16.70;60.10
63013;DHT22;62113;45.624;11.700;2023-02-23T13:10:21;16.60;60.10
63013;DHT22;62113;45.624;11.700;2023-02-23T13:16:28;16.70;60.30
63013;DHT22;62113;45.624;11.700;2023-02-23T13:21:32;16.60;60.20
63013;DHT22;62113;45.624;11.700;2023-02-23T13:29:34;16.50;60.30
63013;DHT22;62113;45.624;11.700;2023-02-23T13:32:03;16.60;60.40
63013;DHT22;62113;45.624;11.700;2023-02-23T13:34:33;16.60;60.40
63013;DHT22;62113;45.624;11.700;2023-02-23T13:37:03;16.60;60.40
63013;DHT22;62113;45.624;11.700;2023-02-23T13:52:48;16.60;60.20
63013;DHT22;62113;45.624;11.700;2023-02-23T13:57:55;16.40;60.40
63013;DHT22;62113;45.624;11.700;2023-02-23T14:00:27;16.30;60.90
63013;DHT22;62113;45.624;11.700;2023-02-23T14:02:53;16.20;61.10
63013;DHT22;62113;45.624;11.700;2023-02-23T14:05:21;16.10;61.30
63013;DHT22;62113;45.624;11.700;2023-02-23T14:08:01;16.10;61.40
63013;DHT22;62113;45.624;11.700;2023-02-23T14:10:38;16.10;61.40
63013;DHT22;62113;45.624;11.700;2023-02-23T14:18:29;16.10;61.10
63013;DHT22;62113;45.624;11.700;2023-02-23T14:24:15;16.10;61.00
63013;DHT22;62113;45.624;11.700;2023-02-23T14:29:42;16.10;61.20
63013;DHT22;62113;45.624;11.700;2023-02-23T14:34:54;16.20;61.30
63013;DHT22;62113;45.624;11.700;2023-02-23T14:37:41;16.20;61.30
63013;DHT22;62113;45.624;11.700;2023-02-23T14:42:37;16.10;61.30
63013;DHT22;62113;45.624;11.700;2023-02-23T14:45:16;16.10;61.50
63013;DHT22;62113;45.624;11.700;2023-02-23T14:47:46;16.00;61.60
63013;DHT22;62113;45.624;11.700;2023-02-23T14:50:18;16.10;61.60
63013;DHT22;62113;45.624;11.700;2023-02-23T14:52:47;16.00;61.60
63013;DHT22;62113;45.624;11.700;2023-02-23T14:55:21;16.10;61.50
63013;DHT22;62113;45.624;11.700;2023-02-23T14:57:48;16.00;61.80
63013;DHT22;62113;45.624;11.700;2023-02-23T15:00:30;16.00;61.70
63013;DHT22;62113;45.624;11.700;2023-02-23T15:03:06;16.00;61.90
63013;DHT22;62113;45.624;11.700;2023-02-23T15:05:55;15.90;62.10
63013;DHT22;62113;45.624;11.700;2023-02-23T15:08:24;15.90;62.30
63013;DHT22;62113;45.624;11.700;2023-02-23T15:11:13;15.90;62.30
63013;DHT22;62113;45.624;11.700;2023-02-23T15:13:44;15.90;62.40
63013;DHT22;62113;45.624;11.700;2023-02-23T15:16:17;15.80;62.20
63013;DHT22;62113;45.624;11.700;2023-02-23T15:18:47;15.70;62.60
63013;DHT22;62113;45.624;11.700;2023-02-23T15:21:20;15.70;62.70
63013;DHT22;62113;45.624;11.700;2023-02-23T15:23:49;15.70;63.10
63013;DHT22;62113;45.624;11.700;2023-02-23T15:26:34;15.70;63.40
63013;DHT22;62113;45.624;11.700;2023-02-23T15:31:35;15.60;63.50
63013;DHT22;62113;45.624;11.700;2023-02-23T15:34:10;15.50;63.40
63013;DHT22;62113;45.624;11.700;2023-02-23T15:36:36;15.50;63.50
63013;DHT22;62113;45.624;11.700;2023-02-23T15:39:05;15.40;63.80
63013;DHT22;62113;45.624;11.700;2023-02-23T15:41:36;15.50;63.90
63013;DHT22;62113;45.624;11.700;2023-02-23T15:46:34;15.40;63.90
63013;DHT22;62113;45.624;11.700;2023-02-23T15:49:02;15.40;64.00
63013;DHT22;62113;45.624;11.700;2023-02-23T15:51:36;15.40;63.90
63013;DHT22;62113;45.624;11.700;2023-02-23T15:54:11;15.40;64.00
63013;DHT22;62113;45.624;11.700;2023-02-23T15:56:40;15.30;64.00
63013;DHT22;62113;45.624;11.700;2023-02-23T15:59:12;15.30;64.00
63013;DHT22;62113;45.624;11.700;2023-02-23T16:01:42;15.30;64.10
63013;DHT22;62113;45.624;11.700;2023-02-23T16:09:24;15.20;64.30
63013;DHT22;62113;45.624;11.700;2023-02-23T16:11:59;15.10;64.60
63013;DHT22;62113;45.624;11.700;2023-02-23T16:14:30;15.10;64.60
63013;DHT22;62113;45.624;11.700;2023-02-23T16:16:57;15.00;64.70
63013;DHT22;62113;45.624;11.700;2023-02-23T16:19:23;14.90;64.70
63013;DHT22;62113;45.624;11.700;2023-02-23T16:21:52;14.90;64.90
63013;DHT22;62113;45.624;11.700;2023-02-23T16:24:24;14.90;64.90
63013;DHT22;62113;45.624;11.700;2023-02-23T16:27:00;14.90;65.00
63013;DHT22;62113;45.624;11.700;2023-02-23T16:29:29;14.90;65.00
63013;DHT22;62113;45.624;11.700;2023-02-23T16:32:01;14.80;65.00
63013;DHT22;62113;45.624;11.700;2023-02-23T16:34:43;14.80;65.10
63013;DHT22;62113;45.624;11.700;2023-02-23T16:37:21;14.80;65.10
63013;DHT22;62113;45.624;11.700;2023-02-23T16:39:49;14.80;65.20
63013;DHT22;62113;45.624;11.700;2023-02-23T16:44:47;14.70;65.50
63013;DHT22;62113;45.624;11.700;2023-02-23T16:49:47;14.60;65.70
63013;DHT22;62113;45.624;11.700;2023-02-23T16:52:21;14.50;65.60
63013;DHT22;62113;45.624;11.700;2023-02-23T16:54:47;14.50;65.90
63013;DHT22;62113;45.624;11.700;2023-02-23T16:57:21;14.50;65.90
63013;DHT22;62113;45.624;11.700;2023-02-23T16:59:49;14.50;66.20
63013;DHT22;62113;45.624;11.700;2023-02-23T17:02:17;14.40;66.40
63013;DHT22;62113;45.624;11.700;2023-02-23T17:04:44;14.40;66.40
63013;DHT22;62113;45.624;11.700;2023-02-23T17:07:14;14.30;66.50
63013;DHT22;62113;45.624;11.700;2023-02-23T17:09:41;14.30;66.50
63013;DHT22;62113;45.624;11.700;2023-02-23T17:12:12;14.30;66.50
63013;DHT22;62113;45.624;11.700;2023-02-23T17:14:38;14.20;66.70
63013;DHT22;62113;45.624;11.700;2023-02-23T17:17:04;14.20;66.80
63013;DHT22;62113;45.624;11.700;2023-02-23T17:19:30;14.30;66.70
63013;DHT22;62113;45.624;11.700;2023-02-23T17:21:55;14.30;66.70
63013;DHT22;62113;45.624;11.700;2023-02-23T17:24:21;14.20;66.80
63013;DHT22;62113;45.624;11.700;2023-02-23T17:26:53;14.20;66.80
63013;DHT22;62113;45.624;11.700;2023-02-23T17:29:19;14.20;66.90
63013;DHT22;62113;45.624;11.700;2023-02-23T17:31:45;14.20;66.80
63013;DHT22;62113;45.624;11.700;2023-02-23T17:34:11;14.20;67.00
63013;DHT22;62113;45.624;11.700;2023-02-23T17:36:37;14.20;67.10
63013;DHT22;62113;45.624;11.700;2023-02-23T17:39:03;14.20;67.20
63013;DHT22;62113;45.624;11.700;2023-02-23T17:41:29;14.20;66.90
63013;DHT22;62113;45.624;11.700;2023-02-23T17:43:55;14.20;66.80
63013;DHT22;62113;45.624;11.700;2023-02-23T17:46:20;14.10;67.00
63013;DHT22;62113;45.624;11.700;2023-02-23T17:48:48;14.10;67.10
63013;DHT22;62113;45.624;11.700;2023-02-23T17:51:14;14.10;67.20
63013;DHT22;62113;45.624;11.700;2023-02-23T17:53:41;14.10;67.20
63013;DHT22;62113;45.624;11.700;2023-02-23T17:56:08;14.10;67.20
63013;DHT22;62113;45.624;11.700;2023-02-23T17:58:34;14.10;67.20
63013;DHT22;62113;45.624;11.700;2023-02-23T18:01:02;14.20;67.10
63013;DHT22;62113;45.624;11.700;2023-02-23T18:03:30;14.10;67.20
63013;DHT22;62113;45.624;11.700;2023-02-23T18:06:06;14.10;67.20
63013;DHT22;62113;45.624;11.700;2023-02-23T18:08:33;14.10;67.20
63013;DHT22;62113;45.624;11.700;2023-02-23T18:10:59;14.10;67.20